Time;durP1;ratioP1;P1;durP2;ratioP2;P2;SDS_P1;SDS_P2;PMS_P1;PMS_P2;Temp;Humidity;BMP_temperature;BMP_pressure;BME280_temperature;BME280_humidity;BME280_pressure;Samples;Min_cycle;Max_cycle;Signal;HPM_P1;HPM_P2
2023/01/31 00:01:35;;;;;;;19.87;11.33;;;;;;;;;;5036837;28;20209;-60
2023/01/31 00:04:06;;;;;;;28.63;13.97;;;;;;;;;;5036426;28;20221;-60
2023/01/31 00:06:35;;;;;;;26.53;12.77;;;;;;;;;;5037073;28;20622;-60
2023/01/31 00:09:05;;;;;;;26.03;14.17;;;;;;;;;;5036713;28;20223;-60
2023/01/31 00:11:32;;;;;;;23.57;12.73;;;;;;;;;;5036585;28;20205;-60
2023/01/31 00:14:01;;;;;;;23.17;11.83;;;;;;;;;;5036606;28;20587;-59
2023/01/31 00:16:28;;;;;;;36.33;22.70;;;;;;;;;;5036506;28;20302;-60
2023/01/31 00:18:55;;;;;;;24.07;17.43;;;;;;;;;;5036319;28;20223;-60
2023/01/31 00:21:24;;;;;;;27.97;13.90;;;;;;;;;;5036147;28;20209;-60
2023/01/31 00:23:53;;;;;;;22.03;11.67;;;;;;;;;;5037027;28;20239;-60
2023/01/31 00:26:24;;;;;;;22.80;12.63;;;;;;;;;;5036407;28;20259;-60
2023/01/31 00:28:52;;;;;;;22.83;12.77;;;;;;;;;;5036489;28;20201;-60
2023/01/31 00:31:20;;;;;;;25.27;12.80;;;;;;;;;;5035447;28;20227;-60
2023/01/31 00:33:49;;;;;;;21.97;12.47;;;;;;;;;;5035272;28;20208;-60
2023/01/31 00:36:26;;;;;;;23.70;13.03;;;;;;;;;;5036368;28;20208;-60
2023/01/31 00:38:55;;;;;;;29.80;14.10;;;;;;;;;;5036401;28;20188;-59
2023/01/31 00:41:23;;;;;;;27.40;14.87;;;;;;;;;;5035231;28;20213;-59
2023/01/31 00:43:51;;;;;;;25.20;16.47;;;;;;;;;;5036004;28;20601;-60
2023/01/31 00:46:19;;;;;;;33.87;18.37;;;;;;;;;;5034892;28;20228;-60
2023/01/31 00:48:47;;;;;;;32.80;15.83;;;;;;;;;;5032828;28;20217;-60
2023/01/31 00:51:15;;;;;;;35.97;16.27;;;;;;;;;;5016110;28;20638;-59
2023/01/31 00:53:42;;;;;;;31.97;17.73;;;;;;;;;;5016159;28;20213;-60
2023/01/31 00:56:12;;;;;;;34.40;16.80;;;;;;;;;;5015207;28;20296;-60
2023/01/31 00:58:39;;;;;;;35.10;18.90;;;;;;;;;;5016066;28;20208;-60
2023/01/31 01:01:20;;;;;;;31.83;16.03;;;;;;;;;;5014878;28;20529;-60
2023/01/31 01:03:50;;;;;;;32.43;16.27;;;;;;;;;;5015025;28;20236;-60
2023/01/31 01:06:17;;;;;;;27.10;15.00;;;;;;;;;;5015263;28;20645;-60
2023/01/31 01:08:45;;;;;;;24.90;13.63;;;;;;;;;;5015003;28;20228;-60
2023/01/31 01:11:27;;;;;;;21.73;13.63;;;;;;;;;;5014970;28;20205;-60
2023/01/31 01:13:55;;;;;;;23.73;13.17;;;;;;;;;;5015873;28;20717;-60
2023/01/31 01:16:33;;;;;;;23.70;13.33;;;;;;;;;;5015876;28;20238;-60
2023/01/31 01:19:04;;;;;;;20.43;11.30;;;;;;;;;;5016264;28;20204;-60
2023/01/31 01:21:38;;;;;;;21.07;11.83;;;;;;;;;;5015481;28;20205;-59
2023/01/31 01:24:08;;;;;;;20.57;11.93;;;;;;;;;;4998673;28;20221;-60
2023/01/31 01:26:38;;;;;;;80.27;39.90;;;;;;;;;;5014761;28;20217;-60
2023/01/31 01:29:05;;;;;;;30.80;19.97;;;;;;;;;;5015556;28;20201;-60
2023/01/31 01:31:32;;;;;;;19.10;12.57;;;;;;;;;;5014631;28;20225;-60
2023/01/31 01:34:06;;;;;;;24.00;12.13;;;;;;;;;;5015428;28;20218;-60
2023/01/31 01:36:34;;;;;;;21.13;11.83;;;;;;;;;;5015436;28;20209;-60
2023/01/31 01:39:08;;;;;;;21.43;11.97;;;;;;;;;;5015104;28;20197;-60
2023/01/31 01:41:36;;;;;;;22.50;12.07;;;;;;;;;;5014637;28;20205;-59
2023/01/31 01:44:42;;;;;;;21.73;12.07;;;;;;;;;;5015171;28;20662;-60
2023/01/31 01:47:28;;;;;;;17.43;11.33;;;;;;;;;;5015089;28;20614;-59
2023/01/31 01:50:19;;;;;;;25.63;12.50;;;;;;;;;;5015504;28;20210;-60
2023/01/31 01:53:05;;;;;;;22.23;11.40;;;;;;;;;;5004871;28;20213;-59
2023/01/31 01:55:40;;;;;;;19.70;10.30;;;;;;;;;;5015082;28;20189;-60
2023/01/31 01:58:14;;;;;;;19.07;11.47;;;;;;;;;;5014876;28;20202;-60
2023/01/31 02:00:43;;;;;;;22.27;11.60;;;;;;;;;;5015499;28;20283;-60
2023/01/31 02:03:11;;;;;;;17.83;10.47;;;;;;;;;;5015124;28;20213;-60
2023/01/31 02:05:45;;;;;;;24.33;12.13;;;;;;;;;;5014193;28;20291;-60
2023/01/31 02:08:15;;;;;;;45.60;28.87;;;;;;;;;;5014471;28;20579;-60
2023/01/31 02:10:49;;;;;;;20.03;13.13;;;;;;;;;;5014376;28;20271;-59
2023/01/31 02:13:17;;;;;;;21.63;12.20;;;;;;;;;;5016644;28;20209;-60
2023/01/31 02:15:45;;;;;;;20.30;10.93;;;;;;;;;;5018138;28;20240;-60
2023/01/31 02:18:12;;;;;;;25.10;11.63;;;;;;;;;;5018942;28;20209;-60
2023/01/31 02:20:50;;;;;;;18.40;11.60;;;;;;;;;;5018254;28;20209;-60
2023/01/31 02:23:35;;;;;;;22.67;12.47;;;;;;;;;;5002126;28;20213;-59
2023/01/31 02:26:35;;;;;;;21.93;11.20;;;;;;;;;;5018934;28;20271;-60
2023/01/31 02:29:12;;;;;;;21.90;11.53;;;;;;;;;;5018529;28;20201;-60
2023/01/31 02:31:58;;;;;;;28.33;13.80;;;;;;;;;;5017785;28;20642;-60
2023/01/31 02:34:40;;;;;;;20.40;11.10;;;;;;;;;;5017945;28;20205;-60
2023/01/31 02:37:23;;;;;;;26.93;11.17;;;;;;;;;;5018058;28;20213;-60
2023/01/31 02:40:01;;;;;;;27.33;11.77;;;;;;;;;;5018077;28;20213;-60
2023/01/31 02:42:52;;;;;;;22.07;12.07;;;;;;;;;;5017631;28;20224;-60
2023/01/31 02:45:37;;;;;;;27.70;11.90;;;;;;;;;;5002188;28;20216;-60
2023/01/31 02:48:39;;;;;;;24.73;11.23;;;;;;;;;;5017874;28;20279;-60
2023/01/31 02:51:10;;;;;;;59.87;32.87;;;;;;;;;;5017408;28;20393;-59
2023/01/31 02:53:56;;;;;;;26.40;17.53;;;;;;;;;;5017504;28;20203;-60
2023/01/31 02:56:29;;;;;;;21.73;11.17;;;;;;;;;;5001841;28;20290;-60
2023/01/31 02:58:57;;;;;;;24.67;11.77;;;;;;;;;;5001464;28;20223;-60
2023/01/31 03:01:29;;;;;;;22.43;11.10;;;;;;;;;;5017218;28;20292;-61
2023/01/31 03:04:04;;;;;;;22.87;10.67;;;;;;;;;;5001069;28;20514;-60
2023/01/31 03:06:35;;;;;;;23.17;11.60;;;;;;;;;;5018169;28;20216;-60
2023/01/31 03:09:20;;;;;;;20.57;11.07;;;;;;;;;;5018513;28;20200;-60
2023/01/31 03:11:57;;;;;;;23.63;10.73;;;;;;;;;;5017165;28;20217;-60
2023/01/31 03:14:46;;;;;;;28.23;12.13;;;;;;;;;;5017059;28;20537;-60
2023/01/31 03:17:31;;;;;;;21.57;11.20;;;;;;;;;;4978876;28;20209;-60
2023/01/31 03:20:14;;;;;;;20.43;10.47;;;;;;;;;;4978719;28;20554;-60
2023/01/31 03:22:59;;;;;;;25.63;10.70;;;;;;;;;;4977656;28;20294;-59
2023/01/31 03:25:30;;;;;;;20.10;10.27;;;;;;;;;;4976584;28;20683;-60
2023/01/31 03:28:09;;;;;;;22.70;10.87;;;;;;;;;;4962512;28;20269;-60
2023/01/31 03:30:55;;;;;;;20.13;10.80;;;;;;;;;;4977946;28;20206;-60
2023/01/31 03:33:26;;;;;;;36.93;13.93;;;;;;;;;;4961859;28;20294;-60
2023/01/31 03:36:17;;;;;;;31.83;19.27;;;;;;;;;;4977972;28;20273;-60
2023/01/31 03:39:11;;;;;;;21.97;10.77;;;;;;;;;;4957476;29;20294;-59
2023/01/31 03:41:49;;;;;;;20.80;10.70;;;;;;;;;;4941874;29;20215;-60
2023/01/31 03:44:24;;;;;;;19.53;9.53;;;;;;;;;;4957520;28;20234;-59
2023/01/31 03:47:16;;;;;;;22.77;11.23;;;;;;;;;;4941470;29;20648;-60
2023/01/31 03:49:45;;;;;;;17.90;9.87;;;;;;;;;;4941336;29;20261;-59
2023/01/31 03:52:24;;;;;;;20.40;9.97;;;;;;;;;;4941210;29;20222;-60
2023/01/31 03:54:57;;;;;;;21.47;10.57;;;;;;;;;;4957147;29;20230;-60
2023/01/31 03:57:31;;;;;;;24.53;10.73;;;;;;;;;;4941294;29;20810;-60
2023/01/31 03:59:58;;;;;;;18.63;8.53;;;;;;;;;;4957277;28;20581;-60
2023/01/31 04:02:32;;;;;;;24.63;11.00;;;;;;;;;;4941023;29;20219;-59
2023/01/31 04:05:07;;;;;;;21.80;10.40;;;;;;;;;;4940874;29;20270;-60
2023/01/31 04:07:38;;;;;;;18.33;10.27;;;;;;;;;;4957290;29;20219;-60
2023/01/31 04:10:11;;;;;;;14.27;8.13;;;;;;;;;;4941101;29;20207;-60
2023/01/31 04:12:38;;;;;;;20.87;9.20;;;;;;;;;;4956992;29;20226;-60
2023/01/31 04:15:06;;;;;;;22.63;10.03;;;;;;;;;;4966849;28;20241;-60
2023/01/31 04:17:33;;;;;;;21.93;9.03;;;;;;;;;;5016848;28;20213;-59
2023/01/31 04:20:00;;;;;;;25.60;9.90;;;;;;;;;;5016699;28;20240;-60
2023/01/31 04:22:28;;;;;;;22.23;9.40;;;;;;;;;;5017125;28;20224;-60
2023/01/31 04:24:55;;;;;;;29.83;12.77;;;;;;;;;;5016649;28;20287;-59
2023/01/31 04:27:23;;;;;;;28.93;10.57;;;;;;;;;;5016600;28;20247;-60
2023/01/31 04:29:50;;;;;;;26.73;10.70;;;;;;;;;;5016968;28;20201;-60
2023/01/31 04:32:17;;;;;;;25.17;10.33;;;;;;;;;;5017200;28;20198;-60
2023/01/31 04:34:44;;;;;;;20.93;9.57;;;;;;;;;;5019578;28;20197;-60
2023/01/31 04:37:11;;;;;;;21.77;8.70;;;;;;;;;;5022103;28;20629;-60
2023/01/31 04:39:38;;;;;;;28.43;9.73;;;;;;;;;;5018965;28;20212;-60
2023/01/31 04:42:06;;;;;;;49.53;21.57;;;;;;;;;;5017187;28;20220;-60
2023/01/31 04:44:33;;;;;;;25.30;12.53;;;;;;;;;;5022614;28;20198;-60
2023/01/31 04:47:00;;;;;;;20.37;9.53;;;;;;;;;;5016527;28;20201;-61
2023/01/31 04:49:27;;;;;;;20.83;9.27;;;;;;;;;;5015608;28;20205;-62
2023/01/31 04:51:55;;;;;;;21.47;8.47;;;;;;;;;;5021700;28;20205;-60
2023/01/31 04:54:21;;;;;;;19.90;8.57;;;;;;;;;;5023725;28;20282;-61
2023/01/31 04:56:49;;;;;;;22.00;8.30;;;;;;;;;;5019491;28;20637;-60
2023/01/31 04:59:16;;;;;;;19.97;8.57;;;;;;;;;;5025549;28;20231;-61
2023/01/31 05:01:43;;;;;;;21.00;8.73;;;;;;;;;;5024201;28;20193;-60
2023/01/31 05:04:11;;;;;;;25.57;10.97;;;;;;;;;;5012296;28;20210;-61
2023/01/31 05:06:38;;;;;;;19.93;9.67;;;;;;;;;;5015009;28;20248;-60
2023/01/31 05:09:06;;;;;;;17.27;8.63;;;;;;;;;;5014756;28;20250;-60
2023/01/31 05:11:33;;;;;;;22.63;10.57;;;;;;;;;;5014572;28;20233;-60
2023/01/31 05:14:01;;;;;;;24.30;10.70;;;;;;;;;;5013977;28;20697;-62
2023/01/31 05:16:28;;;;;;;18.83;7.90;;;;;;;;;;5014624;28;20256;-60
2023/01/31 05:18:55;;;;;;;23.07;8.80;;;;;;;;;;5014325;28;20240;-61
2023/01/31 05:21:22;;;;;;;24.97;8.50;;;;;;;;;;5014544;28;20233;-61
2023/01/31 05:23:49;;;;;;;17.67;8.93;;;;;;;;;;5013838;28;20232;-61
2023/01/31 05:26:17;;;;;;;28.13;8.60;;;;;;;;;;5014104;28;20559;-60
2023/01/31 05:28:44;;;;;;;19.60;7.30;;;;;;;;;;5014817;28;20766;-60
2023/01/31 05:31:12;;;;;;;20.80;8.23;;;;;;;;;;5014440;28;20678;-61
2023/01/31 05:33:39;;;;;;;22.67;9.40;;;;;;;;;;5014311;28;20316;-60
2023/01/31 05:36:07;;;;;;;23.37;12.37;;;;;;;;;;5014131;28;20233;-60
2023/01/31 05:38:34;;;;;;;24.80;12.93;;;;;;;;;;5014887;28;20558;-60
2023/01/31 05:41:01;;;;;;;26.40;9.63;;;;;;;;;;5014080;28;20221;-61
2023/01/31 05:43:28;;;;;;;17.57;8.20;;;;;;;;;;5014531;28;20641;-60
2023/01/31 05:45:56;;;;;;;19.60;8.10;;;;;;;;;;5014008;28;20248;-61
2023/01/31 05:48:23;;;;;;;20.07;8.73;;;;;;;;;;5012150;28;20228;-61
2023/01/31 05:50:50;;;;;;;15.53;7.07;;;;;;;;;;5014167;28;20692;-61
2023/01/31 05:53:17;;;;;;;15.27;6.93;;;;;;;;;;5012267;28;20534;-60
2023/01/31 05:55:46;;;;;;;20.33;8.50;;;;;;;;;;5013453;28;20224;-60
2023/01/31 05:58:13;;;;;;;23.30;8.83;;;;;;;;;;5013560;28;20248;-61
2023/01/31 06:00:40;;;;;;;24.97;12.17;;;;;;;;;;5012755;28;20240;-60
2023/01/31 06:03:07;;;;;;;27.07;8.47;;;;;;;;;;5013127;28;20681;-61
2023/01/31 06:05:35;;;;;;;18.63;8.30;;;;;;;;;;5013566;28;20569;-61
2023/01/31 06:08:02;;;;;;;14.93;7.60;;;;;;;;;;5013542;28;20312;-61
2023/01/31 06:10:29;;;;;;;19.30;7.20;;;;;;;;;;5013938;28;20677;-60
2023/01/31 06:12:57;;;;;;;21.70;7.93;;;;;;;;;;5013771;28;20405;-62
2023/01/31 06:15:24;;;;;;;13.27;7.50;;;;;;;;;;5011114;28;20245;-61
2023/01/31 06:17:51;;;;;;;23.87;7.57;;;;;;;;;;5005744;28;20534;-65
2023/01/31 06:20:18;;;;;;;19.50;7.93;;;;;;;;;;5013190;28;20560;-61
2023/01/31 06:22:45;;;;;;;23.83;9.33;;;;;;;;;;5012912;28;20224;-60
2023/01/31 06:25:13;;;;;;;39.23;15.80;;;;;;;;;;5014394;28;20240;-60
2023/01/31 06:27:40;;;;;;;42.10;21.60;;;;;;;;;;5014493;28;20228;-60
2023/01/31 06:30:09;;;;;;;24.30;10.57;;;;;;;;;;5014782;28;20221;-63
2023/01/31 06:32:37;;;;;;;14.60;6.27;;;;;;;;;;5014278;28;20645;-60
2023/01/31 06:35:04;;;;;;;13.37;6.23;;;;;;;;;;5014731;28;20209;-60
2023/01/31 06:37:31;;;;;;;21.27;8.60;;;;;;;;;;5014307;28;20232;-60
2023/01/31 06:39:59;;;;;;;29.63;7.27;;;;;;;;;;5014579;28;20217;-60
2023/01/31 06:42:26;;;;;;;18.30;7.13;;;;;;;;;;5014821;28;20263;-60
2023/01/31 06:44:53;;;;;;;15.77;6.40;;;;;;;;;;5014600;28;20220;-60
2023/01/31 06:47:20;;;;;;;20.83;7.60;;;;;;;;;;5014722;28;20297;-60
2023/01/31 06:49:47;;;;;;;24.03;7.70;;;;;;;;;;5014785;28;20654;-60
2023/01/31 06:52:15;;;;;;;20.17;9.27;;;;;;;;;;5014862;28;20348;-60
2023/01/31 06:54:42;;;;;;;19.50;9.23;;;;;;;;;;5014710;28;20220;-60
2023/01/31 06:57:09;;;;;;;24.10;9.03;;;;;;;;;;5014248;28;20210;-59
2023/01/31 06:59:36;;;;;;;23.37;8.30;;;;;;;;;;5017505;28;20194;-60
2023/01/31 07:02:03;;;;;;;24.90;8.30;;;;;;;;;;5018198;28;20202;-60
2023/01/31 07:04:31;;;;;;;20.13;7.63;;;;;;;;;;5018288;28;20673;-60
2023/01/31 07:06:58;;;;;;;22.47;7.50;;;;;;;;;;5017002;28;20557;-60
2023/01/31 07:09:25;;;;;;;21.77;7.43;;;;;;;;;;5017933;28;20205;-60
2023/01/31 07:11:52;;;;;;;17.37;6.67;;;;;;;;;;5017690;28;20287;-60
2023/01/31 07:14:20;;;;;;;24.80;7.80;;;;;;;;;;5017999;28;20688;-60
2023/01/31 07:16:47;;;;;;;23.13;7.77;;;;;;;;;;5017977;28;20531;-60
2023/01/31 07:19:15;;;;;;;24.00;8.27;;;;;;;;;;5018084;28;20201;-60
2023/01/31 07:21:43;;;;;;;21.17;7.57;;;;;;;;;;5017633;28;20214;-60
2023/01/31 07:24:10;;;;;;;19.33;7.43;;;;;;;;;;5017789;28;20205;-62
2023/01/31 07:26:37;;;;;;;31.47;10.27;;;;;;;;;;5017334;28;20229;-60
2023/01/31 07:29:05;;;;;;;17.47;7.23;;;;;;;;;;5018346;28;20206;-60
2023/01/31 07:31:32;;;;;;;27.30;8.30;;;;;;;;;;5017514;28;20202;-60
2023/01/31 07:33:59;;;;;;;26.27;8.60;;;;;;;;;;5017490;28;20224;-60
2023/01/31 07:36:26;;;;;;;25.37;7.50;;;;;;;;;;5017320;28;20201;-60
2023/01/31 07:38:55;;;;;;;26.07;8.43;;;;;;;;;;5017298;28;20522;-60
2023/01/31 07:41:23;;;;;;;23.10;7.97;;;;;;;;;;5016649;28;20236;-60
2023/01/31 07:43:51;;;;;;;33.47;8.37;;;;;;;;;;5017171;28;20263;-60
2023/01/31 07:46:18;;;;;;;21.37;8.60;;;;;;;;;;5017346;28;20213;-60
2023/01/31 07:48:46;;;;;;;35.13;11.13;;;;;;;;;;5017744;28;20201;-60
2023/01/31 07:51:13;;;;;;;23.73;6.67;;;;;;;;;;5017184;28;20650;-61
2023/01/31 07:53:41;;;;;;;26.33;8.60;;;;;;;;;;5016977;28;20209;-60
2023/01/31 07:56:09;;;;;;;35.10;7.73;;;;;;;;;;5017190;28;20213;-60
2023/01/31 07:58:37;;;;;;;33.50;7.50;;;;;;;;;;5020940;28;20231;-60
2023/01/31 08:03:50;;;;;;;23.43;7.83;;;;;;;;;;5036543;28;20550;-60
2023/01/31 08:06:18;;;;;;;22.80;6.07;;;;;;;;;;5036734;28;20228;-60
2023/01/31 08:08:45;;;;;;;28.97;6.87;;;;;;;;;;5035877;28;20223;-60
2023/01/31 08:11:12;;;;;;;35.70;10.27;;;;;;;;;;5035954;28;20216;-60
2023/01/31 08:13:40;;;;;;;41.27;9.00;;;;;;;;;;5036703;28;20508;-60
2023/01/31 08:16:08;;;;;;;28.00;9.53;;;;;;;;;;5036606;28;20264;-60
2023/01/31 08:18:36;;;;;;;18.50;5.63;;;;;;;;;;5036548;28;20212;-60
2023/01/31 08:21:04;;;;;;;29.10;7.10;;;;;;;;;;5036610;28;20219;-60
2023/01/31 08:23:32;;;;;;;28.73;8.37;;;;;;;;;;5036688;28;20220;-60
2023/01/31 08:26:01;;;;;;;29.67;7.17;;;;;;;;;;5036213;28;20217;-60
2023/01/31 08:28:29;;;;;;;23.47;6.33;;;;;;;;;;5036322;28;20208;-60
2023/01/31 08:30:56;;;;;;;22.77;5.10;;;;;;;;;;5036446;28;20204;-60
2023/01/31 08:33:37;;;;;;;23.87;6.33;;;;;;;;;;5036569;28;20196;-60
2023/01/31 08:36:08;;;;;;;20.70;6.77;;;;;;;;;;5036210;28;20215;-60
2023/01/31 08:38:35;;;;;;;23.10;7.00;;;;;;;;;;5036352;28;20212;-61
2023/01/31 08:41:02;;;;;;;30.53;6.87;;;;;;;;;;5035753;28;20251;-61
2023/01/31 08:43:31;;;;;;;32.40;10.50;;;;;;;;;;5035724;28;20609;-60
2023/01/31 08:46:11;;;;;;;22.23;5.97;;;;;;;;;;5036170;28;20232;-60
2023/01/31 08:48:40;;;;;;;37.63;7.30;;;;;;;;;;5035961;28;20216;-60
2023/01/31 08:51:10;;;;;;;32.00;10.33;;;;;;;;;;5035880;28;20212;-60
2023/01/31 08:53:39;;;;;;;28.80;7.23;;;;;;;;;;5035829;28;20220;-60
2023/01/31 08:56:07;;;;;;;39.70;9.00;;;;;;;;;;5035768;28;20212;-60
2023/01/31 08:58:37;;;;;;;64.10;18.93;;;;;;;;;;5035830;28;20292;-60
2023/01/31 09:01:06;;;;;;;36.97;10.17;;;;;;;;;;5035530;28;20695;-60
2023/01/31 09:03:34;;;;;;;23.00;6.03;;;;;;;;;;5035753;28;20208;-60
2023/01/31 09:06:03;;;;;;;24.03;6.27;;;;;;;;;;5035684;28;20267;-60
2023/01/31 09:08:31;;;;;;;19.37;5.37;;;;;;;;;;5035797;28;20227;-60
2023/01/31 09:11:01;;;;;;;17.10;4.87;;;;;;;;;;5035411;28;20221;-60
2023/01/31 09:13:30;;;;;;;32.93;8.70;;;;;;;;;;5035421;28;20204;-60
2023/01/31 09:15:58;;;;;;;23.77;5.87;;;;;;;;;;5035580;28;20537;-60
2023/01/31 09:18:25;;;;;;;27.17;7.43;;;;;;;;;;5035227;28;20215;-60
2023/01/31 09:20:52;;;;;;;22.60;5.13;;;;;;;;;;5035404;28;20708;-61
2023/01/31 09:23:20;;;;;;;26.70;5.17;;;;;;;;;;5034442;28;20338;-60
2023/01/31 09:25:54;;;;;;;28.23;6.17;;;;;;;;;;5035799;28;20231;-60
2023/01/31 09:28:22;;;;;;;19.23;5.80;;;;;;;;;;5035100;28;20656;-60
2023/01/31 09:30:52;;;;;;;26.23;5.77;;;;;;;;;;5035223;28;20232;-60
2023/01/31 09:33:21;;;;;;;26.77;6.03;;;;;;;;;;5035310;28;20640;-60
2023/01/31 09:35:59;;;;;;;23.10;7.33;;;;;;;;;;5035271;28;20212;-60
2023/01/31 09:38:26;;;;;;;20.93;5.63;;;;;;;;;;5035659;28;20204;-60
2023/01/31 09:40:55;;;;;;;23.33;8.03;;;;;;;;;;5035028;28;20208;-60
2023/01/31 09:43:27;;;;;;;22.97;5.80;;;;;;;;;;5034359;28;20212;-60
2023/01/31 09:45:57;;;;;;;21.70;6.07;;;;;;;;;;5033982;28;20236;-60
2023/01/31 09:48:30;;;;;;;26.10;6.83;;;;;;;;;;5034933;28;20509;-60
2023/01/31 09:50:57;;;;;;;27.30;6.63;;;;;;;;;;5034793;28;20200;-60
2023/01/31 09:53:30;;;;;;;26.10;5.37;;;;;;;;;;5034892;28;20200;-61
2023/01/31 09:56:06;;;;;;;29.73;8.33;;;;;;;;;;5034880;28;20274;-60
2023/01/31 09:58:46;;;;;;;19.27;5.17;;;;;;;;;;5035005;28;20208;-60
2023/01/31 10:01:39;;;;;;;26.87;5.73;;;;;;;;;;5035134;28;20580;-60
2023/01/31 10:04:30;;;;;;;23.70;5.83;;;;;;;;;;5035163;28;20205;-60
2023/01/31 10:07:05;;;;;;;23.63;6.43;;;;;;;;;;5033695;28;20231;-60
2023/01/31 10:09:35;;;;;;;28.77;5.67;;;;;;;;;;5017727;28;20207;-60
2023/01/31 10:12:52;;;;;;;9.93;3.77;;;;;;;;;;5033860;28;20660;-60
2023/01/31 10:15:31;;;;;;;13.33;4.30;;;;;;;;;;5030512;28;20240;-60
2023/01/31 10:18:02;;;;;;;13.40;4.40;;;;;;;;;;5034802;28;20629;-60
2023/01/31 10:20:43;;;;;;;25.80;6.17;;;;;;;;;;5034171;28;20622;-60
2023/01/31 10:23:16;;;;;;;21.63;5.67;;;;;;;;;;5033800;28;20213;-60
2023/01/31 10:25:56;;;;;;;28.60;6.90;;;;;;;;;;5034738;28;20243;-60
2023/01/31 10:28:42;;;;;;;16.80;4.43;;;;;;;;;;5033899;28;20211;-60
2023/01/31 10:31:20;;;;;;;23.70;5.63;;;;;;;;;;5034111;28;20221;-60
2023/01/31 10:34:03;;;;;;;17.37;5.73;;;;;;;;;;5036141;28;20223;-60
2023/01/31 10:36:34;;;;;;;18.30;4.33;;;;;;;;;;5038486;28;20648;-61
2023/01/31 10:39:20;;;;;;;18.23;4.33;;;;;;;;;;5037684;28;20220;-60
2023/01/31 10:42:13;;;;;;;19.77;4.90;;;;;;;;;;5037479;28;20204;-60
2023/01/31 10:44:59;;;;;;;20.10;4.83;;;;;;;;;;5038381;28;20209;-60
2023/01/31 10:47:32;;;;;;;21.87;6.33;;;;;;;;;;5038107;28;20235;-60
2023/01/31 10:50:00;;;;;;;23.77;5.80;;;;;;;;;;5038613;28;20307;-60
2023/01/31 10:53:06;;;;;;;19.00;5.23;;;;;;;;;;5037846;28;20649;-60
2023/01/31 10:55:42;;;;;;;19.63;6.73;;;;;;;;;;4997009;28;20639;-60
2023/01/31 10:58:21;;;;;;;18.10;4.97;;;;;;;;;;4997229;28;20213;-61
2023/01/31 11:00:48;;;;;;;28.23;7.13;;;;;;;;;;4997064;28;20210;-60
2023/01/31 11:03:16;;;;;;;15.27;5.57;;;;;;;;;;4996657;28;20229;-60
2023/01/31 11:05:49;;;;;;;16.53;4.87;;;;;;;;;;4996954;28;20206;-60
2023/01/31 11:08:32;;;;;;;18.83;5.03;;;;;;;;;;4996780;28;20225;-60
2023/01/31 11:11:10;;;;;;;24.10;5.07;;;;;;;;;;4996860;28;20214;-60
2023/01/31 11:13:38;;;;;;;17.13;4.93;;;;;;;;;;4996673;28;20202;-60
2023/01/31 11:16:11;;;;;;;19.27;4.83;;;;;;;;;;4996209;28;20237;-60
2023/01/31 11:18:47;;;;;;;13.33;3.97;;;;;;;;;;4996604;28;20214;-60
2023/01/31 11:21:23;;;;;;;11.97;3.17;;;;;;;;;;4980635;28;20213;-61
2023/01/31 11:23:51;;;;;;;11.63;3.90;;;;;;;;;;4980668;28;20209;-60
2023/01/31 11:26:27;;;;;;;13.30;4.03;;;;;;;;;;4996239;28;20210;-61
2023/01/31 11:28:55;;;;;;;19.33;4.47;;;;;;;;;;4996668;28;20205;-60
2023/01/31 11:31:29;;;;;;;12.60;4.50;;;;;;;;;;5021806;28;20598;-61
2023/01/31 11:33:59;;;;;;;18.87;4.53;;;;;;;;;;5036660;28;20633;-60
2023/01/31 11:36:32;;;;;;;22.00;5.00;;;;;;;;;;5037282;28;20212;-60
2023/01/31 11:39:38;;;;;;;15.57;4.07;;;;;;;;;;5037619;28;20208;-60
2023/01/31 11:42:13;;;;;;;12.93;4.10;;;;;;;;;;5037101;28;20209;-60
2023/01/31 11:45:04;;;;;;;14.53;3.87;;;;;;;;;;5036458;28;20621;-60
2023/01/31 11:47:42;;;;;;;16.73;4.00;;;;;;;;;;5023576;28;20226;-62
2023/01/31 11:50:19;;;;;;;20.70;4.27;;;;;;;;;;5017132;28;20249;-61
2023/01/31 11:52:53;;;;;;;16.27;4.17;;;;;;;;;;5022796;28;20200;-63
2023/01/31 11:55:21;;;;;;;17.73;4.03;;;;;;;;;;5028397;28;20309;-62
2023/01/31 11:57:54;;;;;;;26.90;4.23;;;;;;;;;;5016749;28;20540;-63
2023/01/31 12:00:27;;;;;;;12.13;3.13;;;;;;;;;;5016956;28;20190;-63
2023/01/31 12:03:00;;;;;;;18.37;3.60;;;;;;;;;;5016857;28;20619;-62
2023/01/31 12:05:35;;;;;;;12.37;3.07;;;;;;;;;;5016852;28;20205;-64
2023/01/31 12:08:02;;;;;;;9.13;3.53;;;;;;;;;;5010282;28;20210;-62
2023/01/31 12:10:41;;;;;;;17.77;3.50;;;;;;;;;;5015957;28;20629;-65
2023/01/31 12:13:19;;;;;;;12.73;3.50;;;;;;;;;;5016721;28;20190;-62
2023/01/31 12:16:03;;;;;;;14.60;3.43;;;;;;;;;;5016581;28;20240;-63
2023/01/31 12:18:35;;;;;;;11.80;3.00;;;;;;;;;;5024025;28;20197;-63
2023/01/31 12:21:21;;;;;;;15.33;3.67;;;;;;;;;;5023236;28;20619;-62
2023/01/31 12:24:07;;;;;;;11.70;3.07;;;;;;;;;;5015656;28;20229;-63
2023/01/31 12:26:38;;;;;;;7.23;2.87;;;;;;;;;;5011486;28;20270;-64
2023/01/31 12:29:19;;;;;;;16.70;3.80;;;;;;;;;;4993032;28;20551;-64
2023/01/31 12:32:29;;;;;;;11.27;2.93;;;;;;;;;;5012331;28;20307;-62
2023/01/31 12:35:14;;;;;;;11.20;3.33;;;;;;;;;;4922130;29;20318;-64
2023/01/31 12:38:03;;;;;;;18.77;3.00;;;;;;;;;;4955189;28;20572;-61
2023/01/31 12:40:39;;;;;;;5.17;2.27;;;;;;;;;;4955219;29;20229;-61
2023/01/31 12:43:20;;;;;;;15.90;3.93;;;;;;;;;;4938459;29;20231;-63
2023/01/31 12:46:21;;;;;;;10.07;3.07;;;;;;;;;;4955040;29;20255;-62
2023/01/31 12:49:04;;;;;;;11.37;3.33;;;;;;;;;;4940610;28;20708;-61
2023/01/31 12:51:58;;;;;;;13.73;4.20;;;;;;;;;;4954828;29;20251;-63
2023/01/31 12:54:37;;;;;;;16.97;3.43;;;;;;;;;;4938975;29;20239;-61
2023/01/31 12:57:23;;;;;;;10.97;2.83;;;;;;;;;;4952752;28;20246;-65
2023/01/31 13:00:11;;;;;;;15.23;3.63;;;;;;;;;;4954507;28;20235;-64
2023/01/31 13:02:44;;;;;;;16.77;4.33;;;;;;;;;;4920428;29;20322;-63
2023/01/31 13:05:24;;;;;;;12.53;3.33;;;;;;;;;;4934801;29;20219;-64
2023/01/31 13:08:01;;;;;;;12.90;3.43;;;;;;;;;;4920451;29;20757;-62
2023/01/31 13:10:36;;;;;;;17.43;4.10;;;;;;;;;;4940021;28;20223;-64
2023/01/31 13:13:05;;;;;;;15.40;5.10;;;;;;;;;;5014540;28;20736;-65
2023/01/31 13:16:00;;;;;;;15.80;5.27;;;;;;;;;;5013199;28;20252;-64
2023/01/31 13:18:30;;;;;;;12.27;3.60;;;;;;;;;;5004990;28;20233;-65
2023/01/31 13:21:00;;;;;;;17.20;5.30;;;;;;;;;;5002858;28;20720;-63
2023/01/31 13:23:37;;;;;;;12.90;4.50;;;;;;;;;;5014755;28;20252;-62
2023/01/31 13:26:10;;;;;;;16.37;4.13;;;;;;;;;;5013330;28;20225;-65
2023/01/31 13:28:44;;;;;;;12.57;3.73;;;;;;;;;;5014036;28;20239;-63
2023/01/31 13:31:19;;;;;;;17.27;5.83;;;;;;;;;;5013857;28;20317;-64
2023/01/31 13:33:55;;;;;;;15.53;4.40;;;;;;;;;;4998055;28;20574;-64
2023/01/31 13:36:29;;;;;;;20.70;5.60;;;;;;;;;;5013322;28;20233;-63
2023/01/31 13:39:01;;;;;;;21.90;6.00;;;;;;;;;;5013835;28;20237;-64
2023/01/31 13:41:30;;;;;;;23.40;6.73;;;;;;;;;;4996341;28;20685;-63
2023/01/31 13:43:59;;;;;;;30.47;7.47;;;;;;;;;;5013822;28;20725;-63
2023/01/31 13:46:35;;;;;;;28.00;7.40;;;;;;;;;;5012793;28;20233;-62
2023/01/31 13:49:08;;;;;;;37.47;7.13;;;;;;;;;;5013282;28;20247;-65
2023/01/31 13:51:36;;;;;;;9.60;4.57;;;;;;;;;;5013176;28;20669;-64
2023/01/31 13:54:02;;;;;;;21.67;7.20;;;;;;;;;;5014034;28;20607;-65
2023/01/31 13:56:34;;;;;;;27.63;6.73;;;;;;;;;;5013526;28;20225;-64
2023/01/31 13:59:01;;;;;;;14.97;4.70;;;;;;;;;;5013517;28;20271;-65
2023/01/31 14:01:33;;;;;;;17.07;4.30;;;;;;;;;;5012896;28;20225;-63
2023/01/31 14:04:10;;;;;;;30.20;6.67;;;;;;;;;;5013469;28;20237;-64
2023/01/31 14:06:54;;;;;;;12.83;3.43;;;;;;;;;;5013273;28;20229;-60
2023/01/31 14:09:29;;;;;;;26.13;6.77;;;;;;;;;;5016337;28;20228;-66
2023/01/31 14:12:20;;;;;;;23.83;6.23;;;;;;;;;;5017705;28;20291;-67
2023/01/31 14:14:55;;;;;;;34.03;11.37;;;;;;;;;;4994842;28;20226;-67
2023/01/31 14:17:28;;;;;;;30.97;9.87;;;;;;;;;;5009687;28;20689;-66
2023/01/31 14:20:24;;;;;;;17.77;5.73;;;;;;;;;;4998074;28;20232;-65
2023/01/31 14:23:31;;;;;;;20.93;5.70;;;;;;;;;;5010598;28;20233;-66
2023/01/31 14:25:58;;;;;;;17.97;5.60;;;;;;;;;;5023552;28;20600;-66
2023/01/31 14:28:26;;;;;;;12.33;5.33;;;;;;;;;;5016386;28;20245;-61
2023/01/31 14:30:54;;;;;;;26.83;8.10;;;;;;;;;;5016529;28;20565;-65
2023/01/31 14:33:22;;;;;;;24.73;6.73;;;;;;;;;;4998064;28;20357;-67
2023/01/31 14:36:11;;;;;;;24.00;12.33;;;;;;;;;;4999206;28;20229;-65
2023/01/31 14:38:57;;;;;;;20.77;8.00;;;;;;;;;;5017865;28;20240;-63
2023/01/31 14:41:59;;;;;;;19.27;6.07;;;;;;;;;;5016484;28;20557;-63
2023/01/31 14:44:52;;;;;;;20.10;5.10;;;;;;;;;;4997990;28;20221;-63
2023/01/31 14:47:22;;;;;;;24.30;6.40;;;;;;;;;;5010945;28;20295;-64
2023/01/31 14:50:14;;;;;;;21.70;6.10;;;;;;;;;;5014186;28;20750;-64
2023/01/31 14:52:50;;;;;;;12.87;5.30;;;;;;;;;;5014778;28;20650;-65
2023/01/31 14:55:23;;;;;;;17.73;6.80;;;;;;;;;;5016643;28;20634;-67
2023/01/31 14:57:53;;;;;;;17.70;5.53;;;;;;;;;;5017199;28;20260;-63
2023/01/31 15:00:27;;;;;;;20.63;7.30;;;;;;;;;;5017307;28;20237;-63
2023/01/31 15:03:02;;;;;;;20.50;8.00;;;;;;;;;;5016330;28;20229;-61
2023/01/31 15:05:35;;;;;;;17.63;4.50;;;;;;;;;;5017061;28;20316;-61